Time;durP1;ratioP1;P1;durP2;ratioP2;P2;SDS_P1;SDS_P2;PMS_P1;PMS_P2;Temp;Humidity;BMP_temperature;BMP_pressure;BME280_temperature;BME280_humidity;BME280_pressure;Samples;Min_cycle;Max_cycle;Signal;HPM_P1;HPM_P2
2023/02/23 00:01:32;;;;;;;;;;;;;;;;;;5003594;28;5032;-56
2023/02/23 00:03:58;;;;;;;;;;;;;;;;;;5006068;28;5046;-56
2023/02/23 00:06:24;;;;;;;;;;;;;;;;;;5003443;28;4591;-56
2023/02/23 00:08:51;;;;;;;;;;;;;;;;;;5004845;28;5240;-56
2023/02/23 00:11:16;;;;;;;;;;;;;;;;;;5005021;28;3419;-56
2023/02/23 00:13:44;;;;;;;;;;;;;;;;;;5003296;28;4666;-56
2023/02/23 00:16:13;;;;;;;;;;;;;;;;;;5001633;28;5235;-56
2023/02/23 00:18:49;;;;;;;;;;;;;;;;;;5003345;28;5161;-56
2023/02/23 00:21:22;;;;;;;;;;;;;;;;;;4983843;28;4737;-56
2023/02/23 00:23:51;;;;;;;;;;;;;;;;;;4996602;28;3462;-57
2023/02/23 00:26:19;;;;;;;;;;;;;;;;;;4997343;28;4589;-57
2023/02/23 00:28:44;;;;;;;;;;;;;;;;;;5006805;28;4835;-56
2023/02/23 00:31:10;;;;;;;;;;;;;;;;;;5008831;28;4919;-56
2023/02/23 00:33:35;;;;;;;;;;;;;;;;;;4993934;28;4911;-56
2023/02/23 00:36:05;;;;;;;;;;;;;;;;;;4996299;28;4488;-56
2023/02/23 00:38:34;;;;;;;;;;;;;;;;;;5005896;28;3481;-57
2023/02/23 00:41:02;;;;;;;;;;;;;;;;;;5004982;28;5089;-56
2023/02/23 00:43:28;;;;;;;;;;;;;;;;;;5002990;28;5139;-57
2023/02/23 00:45:54;;;;;;;;;;;;;;;;;;5002354;28;4721;-56
2023/02/23 00:48:19;;;;;;;;;;;;;;;;;;5006844;28;4550;-57
2023/02/23 00:50:44;;;;;;;;;;;;;;;;;;5002027;28;1686;-56
2023/02/23 00:53:10;;;;;;;;;;;;;;;;;;5003287;28;5131;-56
2023/02/23 00:55:35;;;;;;;;;;;;;;;;;;5001957;28;4688;-56
2023/02/23 00:58:02;;;;;;;;;;;;;;;;;;5000390;28;4932;-57
2023/02/23 01:00:30;;;;;;;;;;;;;;;;;;4990302;28;5195;-57
2023/02/23 01:02:55;;;;;;;;;;;;;;;;;;4994949;28;5110;-56
2023/02/23 01:05:21;;;;;;;;;;;;;;;;;;5004550;28;1967;-56
2023/02/23 01:07:46;;;;;;;;;;;;;;;;;;5004084;28;4452;-57
2023/02/23 01:10:18;;;;;;;;;;;;;;;;;;4997177;28;5149;-57
2023/02/23 01:12:45;;;;;;;;;;;;;;;;;;5004732;28;5630;-57
2023/02/23 01:15:10;;;;;;;;;;;;;;;;;;5006449;28;5054;-56
2023/02/23 01:17:36;;;;;;;;;;;;;;;;;;5005602;28;1356;-56
2023/02/23 01:20:01;;;;;;;;;;;;;;;;;;5003635;28;4613;-56
2023/02/23 01:22:32;;;;;;;;;;;;;;;;;;5000045;28;5111;-56
2023/02/23 01:24:57;;;;;;;;;;;;;;;;;;5004923;28;5017;-57
2023/02/23 01:27:23;;;;;;;;;;;;;;;;;;5003921;28;5068;-57
2023/02/23 01:29:48;;;;;;;;;;;;;;;;;;5010407;28;4652;-55
2023/02/23 01:32:14;;;;;;;;;;;;;;;;;;4998632;28;3457;-57
2023/02/23 01:34:39;;;;;;;;;;;;;;;;;;4999067;28;5150;-57
2023/02/23 01:37:04;;;;;;;;;;;;;;;;;;4998606;28;4674;-57
2023/02/23 01:39:30;;;;;;;;;;;;;;;;;;5003182;28;5172;-56
2023/02/23 01:41:56;;;;;;;;;;;;;;;;;;4994574;28;5612;-57
2023/02/23 01:44:21;;;;;;;;;;;;;;;;;;4999439;28;3517;-57
2023/02/23 01:46:48;;;;;;;;;;;;;;;;;;4999369;28;5045;-57
2023/02/23 01:49:14;;;;;;;;;;;;;;;;;;5002765;28;5084;-56
2023/02/23 01:51:41;;;;;;;;;;;;;;;;;;5002976;28;4667;-56
2023/02/23 01:54:13;;;;;;;;;;;;;;;;;;5002782;28;5070;-56
2023/02/23 01:56:42;;;;;;;;;;;;;;;;;;4985213;28;3989;-56
2023/02/23 01:59:07;;;;;;;;;;;;;;;;;;4997887;28;4519;-56
2023/02/23 02:01:33;;;;;;;;;;;;;;;;;;4984376;28;5047;-56
2023/02/23 02:04:04;;;;;;;;;;;;;;;;;;4996486;28;5210;-56
2023/02/23 02:06:29;;;;;;;;;;;;;;;;;;4998677;28;5130;-56
2023/02/23 02:08:56;;;;;;;;;;;;;;;;;;4999367;28;5285;-56
2023/02/23 02:11:35;;;;;;;;;;;;;;;;;;4996791;28;3601;-56
2023/02/23 02:14:11;;;;;;;;;;;;;;;;;;4994169;28;4992;-57
2023/02/23 02:16:37;;;;;;;;;;;;;;;;;;5000288;28;5140;-55
2023/02/23 02:19:15;;;;;;;;;;;;;;;;;;4998039;28;4641;-56
2023/02/23 02:21:40;;;;;;;;;;;;;;;;;;4999392;28;5263;-57
2023/02/23 02:24:21;;;;;;;;;;;;;;;;;;4987232;28;5028;-56
2023/02/23 02:26:52;;;;;;;;;;;;;;;;;;5006111;28;1402;-56
2023/02/23 02:29:50;;;;;;;;;;;;;;;;;;4996991;28;4578;-56
2023/02/23 02:32:27;;;;;;;;;;;;;;;;;;4972189;28;4484;-57
2023/02/23 02:35:12;;;;;;;;;;;;;;;;;;5007917;28;4998;-57
2023/02/23 02:38:00;;;;;;;;;;;;;;;;;;4975130;28;4879;-56
2023/02/23 02:40:25;;;;;;;;;;;;;;;;;;5001295;28;5098;-56
2023/02/23 02:43:08;;;;;;;;;;;;;;;;;;5006601;28;5029;-56
2023/02/23 02:45:38;;;;;;;;;;;;;;;;;;5006112;28;4919;-56
2023/02/23 02:48:13;;;;;;;;;;;;;;;;;;4998067;28;5140;-56
2023/02/23 02:50:55;;;;;;;;;;;;;;;;;;4989622;28;3416;-56
2023/02/23 02:53:25;;;;;;;;;;;;;;;;;;4985406;28;4540;-56
2023/02/23 02:55:51;;;;;;;;;;;;;;;;;;4998085;28;5573;-57
2023/02/23 02:58:17;;;;;;;;;;;;;;;;;;4983373;28;4967;-57
2023/02/23 04:18:30;;;;;;;;;;;;;;;;;;4980892;28;4935;-56
2023/02/23 04:20:55;;;;;;;;;;;;;;;;;;4991128;28;5473;-56
2023/02/23 04:23:21;;;;;;;;;;;;;;;;;;4981959;28;3269;-56
2023/02/23 04:25:47;;;;;;;;;;;;;;;;;;4979283;28;5061;-56
2023/02/23 04:28:12;;;;;;;;;;;;;;;;;;4978742;28;4899;-56
2023/02/23 04:30:38;;;;;;;;;;;;;;;;;;4988424;28;5123;-56
2023/02/23 04:33:03;;;;;;;;;;;;;;;;;;4981525;28;5114;-56
2023/02/23 04:35:30;;;;;;;;;;;;;;;;;;4978916;28;4077;-57
2023/02/23 04:37:55;;;;;;;;;;;;;;;;;;4983532;28;4531;-56
2023/02/23 04:40:20;;;;;;;;;;;;;;;;;;4983559;28;5373;-57
2023/02/23 04:42:46;;;;;;;;;;;;;;;;;;4981005;28;5058;-56
2023/02/23 04:45:11;;;;;;;;;;;;;;;;;;4984128;28;5158;-53
2023/02/23 04:47:36;;;;;;;;;;;;;;;;;;4977740;28;3448;-56
2023/02/23 04:50:02;;;;;;;;;;;;;;;;;;4982059;28;4942;-56
2023/02/23 04:52:27;;;;;;;;;;;;;;;;;;4982093;28;5202;-56
2023/02/23 04:54:52;;;;;;;;;;;;;;;;;;5005972;28;5522;-56
2023/02/23 04:57:17;;;;;;;;;;;;;;;;;;4995197;28;5012;-57
2023/02/23 04:59:43;;;;;;;;;;;;;;;;;;5002958;28;3369;-56
2023/02/23 05:02:08;;;;;;;;;;;;;;;;;;4980765;28;4993;-57
2023/02/23 05:04:34;;;;;;;;;;;;;;;;;;5003515;28;4536;-57
2023/02/23 05:06:59;;;;;;;;;;;;;;;;;;4994196;28;4644;-57
2023/02/23 05:09:24;;;;;;;;;;;;;;;;;;5005327;28;4878;-57
2023/02/23 05:11:50;;;;;;;;;;;;;;;;;;5003814;28;4512;-56
2023/02/23 05:14:15;;;;;;;;;;;;;;;;;;4997177;28;3579;-56
2023/02/23 05:16:40;;;;;;;;;;;;;;;;;;4995889;28;5136;-56
2023/02/23 05:19:06;;;;;;;;;;;;;;;;;;5005406;28;4492;-57
2023/02/23 05:21:31;;;;;;;;;;;;;;;;;;4998740;28;5179;-56
2023/02/23 05:23:56;;;;;;;;;;;;;;;;;;5005084;28;5014;-56
2023/02/23 05:26:22;;;;;;;;;;;;;;;;;;5000915;28;3402;-56
2023/02/23 05:28:47;;;;;;;;;;;;;;;;;;4982452;28;4488;-55
2023/02/23 05:31:12;;;;;;;;;;;;;;;;;;5001599;28;5108;-56
2023/02/23 05:33:41;;;;;;;;;;;;;;;;;;5005594;28;5130;-56
2023/02/23 05:36:10;;;;;;;;;;;;;;;;;;5000880;28;4975;-56
2023/02/23 05:38:35;;;;;;;;;;;;;;;;;;5004973;28;3521;-57
2023/02/23 05:41:04;;;;;;;;;;;;;;;;;;4997842;28;5585;-56
2023/02/23 05:43:29;;;;;;;;;;;;;;;;;;4998812;28;4781;-57
2023/02/23 05:45:55;;;;;;;;;;;;;;;;;;5000979;28;5062;-57
2023/02/23 05:48:20;;;;;;;;;;;;;;;;;;4999879;28;4570;-57
2023/02/23 05:50:46;;;;;;;;;;;;;;;;;;5001719;28;3591;-57
2023/02/23 05:53:11;;;;;;;;;;;;;;;;;;4994133;28;5150;-56
2023/02/23 05:55:36;;;;;;;;;;;;;;;;;;4995548;28;5106;-60
2023/02/23 05:58:01;;;;;;;;;;;;;;;;;;4994015;28;4728;-57
2023/02/23 06:00:27;;;;;;;;;;;;;;;;;;4995143;28;4511;-56
2023/02/23 06:02:52;;;;;;;;;;;;;;;;;;4997506;28;5563;-57
2023/02/23 06:05:17;;;;;;;;;;;;;;;;;;5003439;28;3507;-56
2023/02/23 06:07:43;;;;;;;;;;;;;;;;;;5002627;28;5003;-57
2023/02/23 06:10:08;;;;;;;;;;;;;;;;;;5007093;28;4615;-57
2023/02/23 06:12:33;;;;;;;;;;;;;;;;;;5008569;28;5051;-57
2023/02/23 06:14:59;;;;;;;;;;;;;;;;;;5006195;28;5673;-57
2023/02/23 06:17:24;;;;;;;;;;;;;;;;;;5002449;28;3537;-57
2023/02/23 06:19:49;;;;;;;;;;;;;;;;;;5001117;28;5181;-57
2023/02/23 06:22:16;;;;;;;;;;;;;;;;;;4996730;28;5090;-57
2023/02/23 06:24:42;;;;;;;;;;;;;;;;;;5004494;28;5171;-57
2023/02/23 06:27:07;;;;;;;;;;;;;;;;;;4999611;28;5103;-56
2023/02/23 06:29:32;;;;;;;;;;;;;;;;;;5005062;28;4657;-56
2023/02/23 06:31:58;;;;;;;;;;;;;;;;;;4999729;28;4704;-56
2023/02/23 06:34:24;;;;;;;;;;;;;;;;;;4981872;28;5087;-56
2023/02/23 06:36:49;;;;;;;;;;;;;;;;;;4997402;28;4557;-57
2023/02/23 06:39:14;;;;;;;;;;;;;;;;;;5002821;28;5151;-56
2023/02/23 06:41:39;;;;;;;;;;;;;;;;;;4994810;28;3508;-56
2023/02/23 06:44:05;;;;;;;;;;;;;;;;;;5000371;28;5012;-57
2023/02/23 06:46:32;;;;;;;;;;;;;;;;;;5003774;28;4814;-56
2023/02/23 06:48:58;;;;;;;;;;;;;;;;;;4993121;28;5110;-52
2023/02/23 06:51:23;;;;;;;;;;;;;;;;;;5003216;28;5069;-56
2023/02/23 06:53:51;;;;;;;;;;;;;;;;;;5005002;28;4559;-56
2023/02/23 06:56:16;;;;;;;;;;;;;;;;;;4998184;28;3715;-56
2023/02/23 06:58:42;;;;;;;;;;;;;;;;;;4999379;28;4495;-56
2023/02/23 07:01:08;;;;;;;;;;;;;;;;;;5000243;28;5059;-56
2023/02/23 07:03:34;;;;;;;;;;;;;;;;;;5006468;28;5008;-56
2023/02/23 07:05:59;;;;;;;;;;;;;;;;;;4999899;28;5267;-56
2023/02/23 07:08:24;;;;;;;;;;;;;;;;;;4998108;28;3319;-56
2023/02/23 07:10:49;;;;;;;;;;;;;;;;;;5008849;28;5109;-56
2023/02/23 07:13:15;;;;;;;;;;;;;;;;;;4996202;28;4741;-56
2023/02/23 07:15:40;;;;;;;;;;;;;;;;;;5000011;28;5055;-56
2023/02/23 07:18:06;;;;;;;;;;;;;;;;;;5005834;28;5126;-57
2023/02/23 07:20:31;;;;;;;;;;;;;;;;;;5009540;28;3292;-56
2023/02/23 07:22:57;;;;;;;;;;;;;;;;;;5000721;28;5013;-57
2023/02/23 07:25:22;;;;;;;;;;;;;;;;;;5002751;28;4628;-56
2023/02/23 07:27:48;;;;;;;;;;;;;;;;;;5014806;28;5073;-57
2023/02/23 07:30:13;;;;;;;;;;;;;;;;;;5003196;28;5109;-56
2023/02/23 07:32:38;;;;;;;;;;;;;;;;;;5011620;28;1257;-56
2023/02/23 07:35:04;;;;;;;;;;;;;;;;;;5002433;28;4994;-56
2023/02/23 07:37:30;;;;;;;;;;;;;;;;;;5001850;28;4925;-56
2023/02/23 07:39:55;;;;;;;;;;;;;;;;;;5006316;28;5218;-57
2023/02/23 07:42:20;;;;;;;;;;;;;;;;;;4999697;28;5216;-57
2023/02/23 07:44:46;;;;;;;;;;;;;;;;;;4998368;28;3901;-56
2023/02/23 07:47:11;;;;;;;;;;;;;;;;;;5001219;28;4392;-63
2023/02/23 07:49:36;;;;;;;;;;;;;;;;;;5001385;28;4543;-64
2023/02/23 07:52:01;;;;;;;;;;;;;;;;;;5001263;28;4557;-63
2023/02/23 07:54:27;;;;;;;;;;;;;;;;;;5003176;28;5126;-69
2023/02/23 07:56:52;;;;;;;;;;;;;;;;;;4995396;28;4716;-65
2023/02/23 07:59:17;;;;;;;;;;;;;;;;;;5002128;28;3396;-60
2023/02/23 08:01:42;;;;;;;;;;;;;;;;;;4999306;28;5380;-68
2023/02/23 08:04:08;;;;;;;;;;;;;;;;;;5004668;28;4507;-62
2023/02/23 08:06:33;;;;;;;;;;;;;;;;;;5006588;28;5549;-69
2023/02/23 08:09:00;;;;;;;;;;;;;;;;;;4995589;28;4954;-65
2023/02/23 08:11:27;;;;;;;;;;;;;;;;;;5004395;28;3570;-65
2023/02/23 08:13:53;;;;;;;;;;;;;;;;;;5006840;28;5011;-70
2023/02/23 08:16:18;;;;;;;;;;;;;;;;;;5005765;28;4928;-68
2023/02/23 08:18:44;;;;;;;;;;;;;;;;;;5001023;28;5067;-70
2023/02/23 08:21:10;;;;;;;;;;;;;;;;;;5003823;28;4515;-65
2023/02/23 08:23:36;;;;;;;;;;;;;;;;;;5008299;28;3712;-70
2023/02/23 08:26:01;;;;;;;;;;;;;;;;;;5009449;28;4450;-66
2023/02/23 08:28:26;;;;;;;;;;;;;;;;;;5000858;28;4918;-58
2023/02/23 08:30:52;;;;;;;;;;;;;;;;;;5003271;28;5107;-66
2023/02/23 08:33:17;;;;;;;;;;;;;;;;;;4994722;28;5023;-56
2023/02/23 08:35:43;;;;;;;;;;;;;;;;;;5003228;28;3613;-68
2023/02/23 08:38:09;;;;;;;;;;;;;;;;;;4996527;28;5046;-65
2023/02/23 08:40:34;;;;;;;;;;;;;;;;;;5009137;28;4969;-62
2023/02/23 08:42:59;;;;;;;;;;;;;;;;;;5001122;28;4612;-65
2023/02/23 08:45:28;;;;;;;;;;;;;;;;;;5005500;28;5101;-59
2023/02/23 08:47:53;;;;;;;;;;;;;;;;;;5000206;28;4813;-68
2023/02/23 08:50:18;;;;;;;;;;;;;;;;;;5001375;28;3584;-68
2023/02/23 08:52:44;;;;;;;;;;;;;;;;;;5004761;28;5175;-69
2023/02/23 08:55:10;;;;;;;;;;;;;;;;;;5004195;28;4525;-65
2023/02/23 08:57:35;;;;;;;;;;;;;;;;;;4999398;28;5095;-63
2023/02/23 09:00:01;;;;;;;;;;;;;;;;;;5003908;28;4638;-64
2023/02/23 09:02:27;;;;;;;;;;;;;;;;;;5004375;28;3518;-67
2023/02/23 09:04:52;;;;;;;;;;;;;;;;;;5001046;28;5055;-68
2023/02/23 09:07:21;;;;;;;;;;;;;;;;;;5003017;28;5031;-63
2023/02/23 09:09:51;;;;;;;;;;;;;;;;;;5001778;28;5267;-67
2023/02/23 09:12:16;;;;;;;;;;;;;;;;;;5005152;28;5038;-67
2023/02/23 09:14:42;;;;;;;;;;;;;;;;;;4998234;28;3360;-64
2023/02/23 09:17:07;;;;;;;;;;;;;;;;;;4990416;28;4426;-67
2023/02/23 09:19:32;;;;;;;;;;;;;;;;;;5005777;28;5074;-68
2023/02/23 09:21:58;;;;;;;;;;;;;;;;;;5003032;28;4695;-65
2023/02/23 09:24:23;;;;;;;;;;;;;;;;;;5000826;28;4555;-65
2023/02/23 09:26:48;;;;;;;;;;;;;;;;;;5017358;28;3404;-63
2023/02/23 09:29:13;;;;;;;;;;;;;;;;;;4998432;28;5054;-66
2023/02/23 09:31:39;;;;;;;;;;;;;;;;;;4992550;28;5106;-68
2023/02/23 09:34:04;;;;;;;;;;;;;;;;;;5001037;28;4482;-67
2023/02/23 09:36:30;;;;;;;;;;;;;;;;;;5004277;28;5248;-68
2023/02/23 09:38:56;;;;;;;;;;;;;;;;;;4999754;28;5461;-64
2023/02/23 09:41:21;;;;;;;;;;;;;;;;;;4999816;28;3428;-64
2023/02/23 09:43:49;;;;;;;;;;;;;;;;;;5006022;28;5041;-63
2023/02/23 09:46:14;;;;;;;;;;;;;;;;;;5001633;28;5102;-67
2023/02/23 09:48:40;;;;;;;;;;;;;;;;;;5004598;28;4516;-59
2023/02/23 09:51:07;;;;;;;;;;;;;;;;;;5001100;28;5202;-67
2023/02/23 09:53:43;;;;;;;;;;;;;;;;;;4988005;28;3439;-67
2023/02/23 09:56:12;;;;;;;;;;;;;;;;;;5001512;28;4927;-68
2023/02/23 09:58:38;;;;;;;;;;;;;;;;;;4989398;28;5034;-67
2023/02/23 10:01:08;;;;;;;;;;;;;;;;;;5002511;28;5096;-68
2023/02/23 10:03:34;;;;;;;;;;;;;;;;;;4985192;28;5535;-70
2023/02/23 10:06:00;;;;;;;;;;;;;;;;;;5006403;28;4535;-60
2023/02/23 10:08:40;;;;;;;;;;;;;;;;;;5001326;28;3725;-70
2023/02/23 10:11:33;;;;;;;;;;;;;;;;;;5006737;28;5217;-67
2023/02/23 10:14:12;;;;;;;;;;;;;;;;;;5001305;28;5033;-67
2023/02/23 10:17:13;;;;;;;;;;;;;;;;;;5001170;28;4956;-62
2023/02/23 10:19:57;;;;;;;;;;;;;;;;;;4948005;28;5051;-67
2023/02/23 10:22:23;;;;;;;;;;;;;;;;;;4995572;28;4678;-64
2023/02/23 10:24:53;;;;;;;;;;;;;;;;;;4988627;28;4492;-62
2023/02/23 10:27:19;;;;;;;;;;;;;;;;;;5000310;28;4889;-65
2023/02/23 10:29:47;;;;;;;;;;;;;;;;;;5012428;28;4586;-62
2023/02/23 10:32:36;;;;;;;;;;;;;;;;;;5008243;28;5030;-67
2023/02/23 10:35:05;;;;;;;;;;;;;;;;;;4994945;28;5194;-67
2023/02/23 10:37:30;;;;;;;;;;;;;;;;;;5001616;28;4520;-67
2023/02/23 10:39:55;;;;;;;;;;;;;;;;;;4993729;28;5133;-69
2023/02/23 10:42:22;;;;;;;;;;;;;;;;;;5019119;28;4572;-69
2023/02/23 10:44:48;;;;;;;;;;;;;;;;;;5002160;28;3547;-69
2023/02/23 10:47:15;;;;;;;;;;;;;;;;;;5005543;28;5109;-68
2023/02/23 10:49:44;;;;;;;;;;;;;;;;;;5002938;28;5350;-67
2023/02/23 10:52:12;;;;;;;;;;;;;;;;;;4996252;28;5087;-66
2023/02/23 10:54:44;;;;;;;;;;;;;;;;;;4996029;28;5016;-66
2023/02/23 10:57:12;;;;;;;;;;;;;;;;;;5003738;28;4956;-67
2023/02/23 10:59:56;;;;;;;;;;;;;;;;;;5000027;28;3598;-66
2023/02/23 11:02:22;;;;;;;;;;;;;;;;;;4987098;28;5198;-68
2023/02/23 11:04:55;;;;;;;;;;;;;;;;;;5000188;28;5134;-66
2023/02/23 11:07:24;;;;;;;;;;;;;;;;;;5003178;28;4572;-65
2023/02/23 11:09:50;;;;;;;;;;;;;;;;;;5000512;28;5115;-65
2023/02/23 11:12:33;;;;;;;;;;;;;;;;;;5005435;28;5172;-65
2023/02/23 11:14:59;;;;;;;;;;;;;;;;;;5004075;28;5229;-57
2023/02/23 11:17:31;;;;;;;;;;;;;;;;;;5003474;28;3603;-63
2023/02/23 11:19:57;;;;;;;;;;;;;;;;;;5002248;28;5193;-67
2023/02/23 11:22:22;;;;;;;;;;;;;;;;;;4998707;28;4924;-61
2023/02/23 11:24:48;;;;;;;;;;;;;;;;;;5004426;28;5267;-62
2023/02/23 11:27:19;;;;;;;;;;;;;;;;;;4974115;28;4722;-60
2023/02/23 11:29:46;;;;;;;;;;;;;;;;;;5000491;28;4628;-60
2023/02/23 11:32:14;;;;;;;;;;;;;;;;;;4984053;28;4406;-58
2023/02/23 11:34:39;;;;;;;;;;;;;;;;;;5004357;28;4956;-59
2023/02/23 11:37:20;;;;;;;;;;;;;;;;;;5002066;28;5064;-62
2023/02/23 11:39:51;;;;;;;;;;;;;;;;;;5000682;28;5030;-63
2023/02/23 11:42:18;;;;;;;;;;;;;;;;;;4998516;28;5117;-60
2023/02/23 11:44:46;;;;;;;;;;;;;;;;;;5003798;28;3550;-60
2023/02/23 11:47:13;;;;;;;;;;;;;;;;;;5001838;28;5125;-60
2023/02/23 11:49:38;;;;;;;;;;;;;;;;;;4998250;28;5177;-61
2023/02/23 11:52:03;;;;;;;;;;;;;;;;;;5000211;28;5065;-60
2023/02/23 11:54:30;;;;;;;;;;;;;;;;;;4998708;28;5086;-59
2023/02/23 11:56:56;;;;;;;;;;;;;;;;;;4993896;28;4944;-57
2023/02/23 11:59:28;;;;;;;;;;;;;;;;;;4988137;28;3370;-59
2023/02/23 12:01:54;;;;;;;;;;;;;;;;;;4992664;28;5020;-58
2023/02/23 12:04:24;;;;;;;;;;;;;;;;;;4978969;28;5202;-60
2023/02/23 12:06:49;;;;;;;;;;;;;;;;;;4997361;28;4758;-57
2023/02/23 12:09:17;;;;;;;;;;;;;;;;;;4996309;28;5094;-59
2023/02/23 12:11:43;;;;;;;;;;;;;;;;;;5004980;28;3509;-49
2023/02/23 12:14:12;;;;;;;;;;;;;;;;;;4999175;28;4919;-60
2023/02/23 12:16:38;;;;;;;;;;;;;;;;;;5001195;28;5259;-60
2023/02/23 12:19:11;;;;;;;;;;;;;;;;;;5002779;28;5052;-63
2023/02/23 12:21:43;;;;;;;;;;;;;;;;;;4994236;28;5201;-58
2023/02/23 12:24:12;;;;;;;;;;;;;;;;;;4998518;28;5238;-58
2023/02/23 12:26:57;;;;;;;;;;;;;;;;;;5020707;28;3396;-58
2023/02/23 12:29:41;;;;;;;;;;;;;;;;;;4999356;28;4748;-59
2023/02/23 12:32:20;;;;;;;;;;;;;;;;;;4997612;28;4900;-59
2023/02/23 12:34:46;;;;;;;;;;;;;;;;;;4999837;28;5093;-55
2023/02/23 12:37:28;;;;;;;;;;;;;;;;;;5001127;28;4535;-59
2023/02/23 12:40:16;;;;;;;;;;;;;;;;;;4999871;28;4707;-55
2023/02/23 12:42:44;;;;;;;;;;;;;;;;;;4978829;28;5236;-59
2023/02/23 12:45:13;;;;;;;;;;;;;;;;;;4997867;28;4539;-59
2023/02/23 12:47:48;;;;;;;;;;;;;;;;;;4986459;28;3545;-58
2023/02/23 12:50:19;;;;;;;;;;;;;;;;;;4997031;28;5025;-57
2023/02/23 12:52:56;;;;;;;;;;;;;;;;;;5002784;28;4620;-59
2023/02/23 12:55:40;;;;;;;;;;;;;;;;;;4998188;28;4550;-57
2023/02/23 12:58:11;;;;;;;;;;;;;;;;;;5000755;28;4544;-57
2023/02/23 13:00:40;;;;;;;;;;;;;;;;;;4998427;28;5162;-57
2023/02/23 13:03:17;;;;;;;;;;;;;;;;;;4999596;28;5234;-55
2023/02/23 13:05:51;;;;;;;;;;;;;;;;;;5006634;28;3427;-57
2023/02/23 13:08:19;;;;;;;;;;;;;;;;;;5008212;28;5239;-58
2023/02/23 13:11:00;;;;;;;;;;;;;;;;;;4997518;28;4621;-59
2023/02/23 13:13:43;;;;;;;;;;;;;;;;;;4998502;28;5141;-58
2023/02/23 13:16:21;;;;;;;;;;;;;;;;;;4993579;28;5036;-56
2023/02/23 13:19:06;;;;;;;;;;;;;;;;;;5000503;28;4515;-57
2023/02/23 13:21:41;;;;;;;;;;;;;;;;;;4971902;28;5059;-59
2023/02/23 13:24:10;;;;;;;;;;;;;;;;;;5003706;28;4892;-59
2023/02/23 13:26:40;;;;;;;;;;;;;;;;;;5002762;28;3491;-57
2023/02/23 13:29:25;;;;;;;;;;;;;;;;;;4985421;28;4526;-63
2023/02/23 13:31:50;;;;;;;;;;;;;;;;;;5005654;28;5554;-60
2023/02/23 13:34:20;;;;;;;;;;;;;;;;;;5004103;28;4728;-58
2023/02/23 13:36:45;;;;;;;;;;;;;;;;;;5004106;28;4677;-66
2023/02/23 13:39:29;;;;;;;;;;;;;;;;;;4987566;28;4571;-66
2023/02/23 13:42:00;;;;;;;;;;;;;;;;;;4997764;28;4683;-66
2023/02/23 13:44:28;;;;;;;;;;;;;;;;;;4997102;28;3383;-66
2023/02/23 13:46:56;;;;;;;;;;;;;;;;;;4997445;28;4512;-67
2023/02/23 13:49:27;;;;;;;;;;;;;;;;;;4999771;28;5376;-65
2023/02/23 13:51:59;;;;;;;;;;;;;;;;;;5001049;28;4561;-65
2023/02/23 13:54:30;;;;;;;;;;;;;;;;;;5001135;28;5100;-63
2023/02/23 13:56:56;;;;;;;;;;;;;;;;;;4998654;28;4669;-64
2023/02/23 13:59:22;;;;;;;;;;;;;;;;;;4961901;28;3800;-65
2023/02/23 14:01:52;;;;;;;;;;;;;;;;;;4999050;28;4981;-65
2023/02/23 14:04:21;;;;;;;;;;;;;;;;;;5005059;28;4734;-66
2023/02/23 14:07:01;;;;;;;;;;;;;;;;;;5000636;28;5078;-65
2023/02/23 14:09:30;;;;;;;;;;;;;;;;;;5001926;28;4902;-65
2023/02/23 14:12:18;;;;;;;;;;;;;;;;;;4998581;28;4930;-67
2023/02/23 14:14:43;;;;;;;;;;;;;;;;;;5002105;28;3338;-62
2023/02/23 14:17:15;;;;;;;;;;;;;;;;;;4999599;28;4925;-62
2023/02/23 14:19:43;;;;;;;;;;;;;;;;;;4997511;28;5097;-63
2023/02/23 14:22:12;;;;;;;;;;;;;;;;;;4999566;28;5053;-63
2023/02/23 14:24:38;;;;;;;;;;;;;;;;;;4985537;28;4536;-59
2023/02/23 14:27:09;;;;;;;;;;;;;;;;;;5003952;28;5140;-67
2023/02/23 14:29:44;;;;;;;;;;;;;;;;;;5006346;28;4787;-69
2023/02/23 14:32:09;;;;;;;;;;;;;;;;;;5006497;28;4439;-68
2023/02/23 14:35:01;;;;;;;;;;;;;;;;;;5006684;28;5086;-62
2023/02/23 14:37:39;;;;;;;;;;;;;;;;;;5003461;28;5535;-65
2023/02/23 14:40:10;;;;;;;;;;;;;;;;;;5005039;28;5119;-62
2023/02/23 14:42:35;;;;;;;;;;;;;;;;;;5008796;28;4973;-62
2023/02/23 14:45:05;;;;;;;;;;;;;;;;;;5000998;28;5234;-61
2023/02/23 14:47:39;;;;;;;;;;;;;;;;;;5004399;28;3392;-60
2023/02/23 14:50:06;;;;;;;;;;;;;;;;;;5007090;28;4911;-62
2023/02/23 14:52:31;;;;;;;;;;;;;;;;;;5002971;28;4584;-61
2023/02/23 14:55:05;;;;;;;;;;;;;;;;;;4999896;28;5096;-62
2023/02/23 14:57:33;;;;;;;;;;;;;;;;;;4987663;28;4730;-61
2023/02/23 14:59:59;;;;;;;;;;;;;;;;;;5002984;28;5332;-64
2023/02/23 15:02:25;;;;;;;;;;;;;;;;;;4993007;28;3298;-65
2023/02/23 15:04:50;;;;;;;;;;;;;;;;;;4999904;28;4559;-65
2023/02/23 15:07:26;;;;;;;;;;;;;;;;;;5006791;28;5157;-67
2023/02/23 15:09:52;;;;;;;;;;;;;;;;;;5001408;28;4987;-63
2023/02/23 15:12:19;;;;;;;;;;;;;;;;;;5003595;28;5041;-62
2023/02/23 15:14:44;;;;;;;;;;;;;;;;;;4984862;28;3874;-63
2023/02/23 15:17:12;;;;;;;;;;;;;;;;;;4995156;28;5002;-60
2023/02/23 15:19:38;;;;;;;;;;;;;;;;;;4994953;28;5002;-65
2023/02/23 15:22:03;;;;;;;;;;;;;;;;;;4992665;28;5052;-64
2023/02/23 15:24:35;;;;;;;;;;;;;;;;;;4980334;28;4519;-69
2023/02/23 15:27:00;;;;;;;;;;;;;;;;;;5001261;28;5248;-58
2023/02/23 15:29:30;;;;;;;;;;;;;;;;;;4994993;28;4713;-61
2023/02/23 15:31:56;;;;;;;;;;;;;;;;;;4995531;28;4547;-64
2023/02/23 15:34:25;;;;;;;;;;;;;;;;;;4985745;28;5152;-65
2023/02/23 15:36:50;;;;;;;;;;;;;;;;;;4984454;28;5354;-59
2023/02/23 15:39:16;;;;;;;;;;;;;;;;;;4996755;28;4548;-58
2023/02/23 15:41:42;;;;;;;;;;;;;;;;;;4988297;28;3418;-62
2023/02/23 15:44:10;;;;;;;;;;;;;;;;;;4993154;28;5035;-64
2023/02/23 15:46:36;;;;;;;;;;;;;;;;;;4997528;28;5172;-58
2023/02/23 15:49:05;;;;;;;;;;;;;;;;;;5007939;28;4942;-60
2023/02/23 15:51:35;;;;;;;;;;;;;;;;;;5000345;28;4772;-63
2023/02/23 15:54:01;;;;;;;;;;;;;;;;;;5003114;28;4932;-64
2023/02/23 15:56:29;;;;;;;;;;;;;;;;;;4999611;28;3543;-61
2023/02/23 15:59:00;;;;;;;;;;;;;;;;;;5003509;28;4876;-63
2023/02/23 16:01:29;;;;;;;;;;;;;;;;;;4999763;28;5034;-59
2023/02/23 16:03:58;;;;;;;;;;;;;;;;;;4999795;28;5046;-63
2023/02/23 16:06:25;;;;;;;;;;;;;;;;;;4997598;28;5093;-57
2023/02/23 16:08:56;;;;;;;;;;;;;;;;;;5002137;28;4556;-53
2023/02/23 16:11:22;;;;;;;;;;;;;;;;;;5007613;28;3503;-58
2023/02/23 16:13:47;;;;;;;;;;;;;;;;;;5002712;28;5047;-60
2023/02/23 16:16:17;;;;;;;;;;;;;;;;;;5000696;28;5136;-59
2023/02/23 16:18:43;;;;;;;;;;;;;;;;;;5006605;28;5072;-53
2023/02/23 16:21:11;;;;;;;;;;;;;;;;;;5002585;28;5181;-60
2023/02/23 16:23:39;;;;;;;;;;;;;;;;;;5001081;28;3421;-67
2023/02/23 16:26:08;;;;;;;;;;;;;;;;;;4986078;28;4467;-69
2023/02/23 16:28:33;;;;;;;;;;;;;;;;;;5001124;28;5671;-67
2023/02/23 16:31:00;;;;;;;;;;;;;;;;;;5015847;28;5091;-68
2023/02/23 16:33:47;;;;;;;;;;;;;;;;;;5002908;28;5233;-59
2023/02/23 16:36:18;;;;;;;;;;;;;;;;;;5001127;28;5268;-69
2023/02/23 16:38:48;;;;;;;;;;;;;;;;;;5005479;28;3558;-65
2023/02/23 16:41:20;;;;;;;;;;;;;;;;;;5001447;28;4420;-64
2023/02/23 16:43:47;;;;;;;;;;;;;;;;;;4982705;28;4594;-66
2023/02/23 16:46:12;;;;;;;;;;;;;;;;;;4998877;28;6039;-66
2023/02/23 16:48:37;;;;;;;;;;;;;;;;;;4985552;28;4986;-69
2023/02/23 16:51:06;;;;;;;;;;;;;;;;;;4985451;28;5610;-67
2023/02/23 16:53:31;;;;;;;;;;;;;;;;;;4979644;28;3657;-61
2023/02/23 16:55:59;;;;;;;;;;;;;;;;;;5001307;28;4898;-59
2023/02/23 16:58:25;;;;;;;;;;;;;;;;;;4993550;28;5347;-59
2023/02/23 17:00:51;;;;;;;;;;;;;;;;;;5001413;28;4536;-60
2023/02/23 17:03:19;;;;;;;;;;;;;;;;;;4996398;28;4878;-60
2023/02/23 17:05:44;;;;;;;;;;;;;;;;;;4987071;28;3574;-61
2023/02/23 17:08:09;;;;;;;;;;;;;;;;;;5001357;28;5125;-60
2023/02/23 17:10:35;;;;;;;;;;;;;;;;;;4996917;28;5083;-62
2023/02/23 17:13:03;;;;;;;;;;;;;;;;;;4982631;28;5012;-59
2023/02/23 17:15:29;;;;;;;;;;;;;;;;;;4985349;28;5205;-61
2023/02/23 17:17:55;;;;;;;;;;;;;;;;;;4990036;28;5015;-62
2023/02/23 17:20:21;;;;;;;;;;;;;;;;;;5001069;28;3556;-67
2023/02/23 17:22:49;;;;;;;;;;;;;;;;;;5000926;28;5903;-64
2023/02/23 17:25:15;;;;;;;;;;;;;;;;;;5001639;28;5090;-61
2023/02/23 17:27:40;;;;;;;;;;;;;;;;;;4996270;28;4556;-63
2023/02/23 17:30:05;;;;;;;;;;;;;;;;;;5004390;28;5097;-64
2023/02/23 17:32:31;;;;;;;;;;;;;;;;;;5003144;28;3542;-63
2023/02/23 17:34:56;;;;;;;;;;;;;;;;;;4999979;28;4906;-67
2023/02/23 17:37:22;;;;;;;;;;;;;;;;;;4996505;28;5006;-68
2023/02/23 17:39:49;;;;;;;;;;;;;;;;;;4995026;28;4692;-64
2023/02/23 17:42:15;;;;;;;;;;;;;;;;;;4994758;28;5180;-66
2023/02/23 17:44:40;;;;;;;;;;;;;;;;;;5000153;28;3729;-69
2023/02/23 17:47:05;;;;;;;;;;;;;;;;;;5002496;28;4796;-67
2023/02/23 17:49:31;;;;;;;;;;;;;;;;;;5001849;28;5095;-69
2023/02/23 17:51:56;;;;;;;;;;;;;;;;;;5000940;28;5155;-69
2023/02/23 17:54:21;;;;;;;;;;;;;;;;;;5002474;28;4503;-69
2023/02/23 17:56:47;;;;;;;;;;;;;;;;;;4995465;28;3672;-59
2023/02/23 17:59:12;;;;;;;;;;;;;;;;;;4999640;28;4635;-68
2023/02/23 18:01:37;;;;;;;;;;;;;;;;;;5000861;28;5204;-69
2023/02/23 18:04:03;;;;;;;;;;;;;;;;;;4987995;28;5690;-63
2023/02/23 18:06:29;;;;;;;;;;;;;;;;;;5002342;28;5144;-64
2023/02/23 18:08:54;;;;;;;;;;;;;;;;;;5000473;28;4708;-65
2023/02/23 18:11:19;;;;;;;;;;;;;;;;;;5004230;28;3397;-66
2023/02/23 18:13:45;;;;;;;;;;;;;;;;;;5003916;28;4443;-68
2023/02/23 18:16:10;;;;;;;;;;;;;;;;;;5004159;28;5067;-67
2023/02/23 18:18:39;;;;;;;;;;;;;;;;;;4985857;28;5081;-68
2023/02/23 18:21:08;;;;;;;;;;;;;;;;;;5001220;28;4769;-60
2023/02/23 18:23:34;;;;;;;;;;;;;;;;;;4984279;28;3816;-62
2023/02/23 18:26:18;;;;;;;;;;;;;;;;;;5003556;28;4642;-64
2023/02/23 18:28:44;;;;;;;;;;;;;;;;;;5008842;28;4930;-60